Time,TemperatureF,DewpointF,PressureIn,WindDirection,WindDirectionDegrees,WindSpeedMPH,WindSpeedGustMPH,Humidity,HourlyPrecipIn,Conditions,Clouds,dailyrainin,SoftwareType,DateUTC
2013-08-26 00:04:00,68.3,62.9,30.24,NE,36,3.0,3.0,83,0.00,,,0.00,Wunderground v.1.15,2013-08-26 04:04:00,
2013-08-26 00:09:00,68.2,62.8,30.24,NE,49,3.0,3.0,83,0.00,,,0.00,Wunderground v.1.15,2013-08-26 04:09:00,
2013-08-26 00:15:00,68.2,62.8,30.24,NE,41,3.0,3.0,83,0.00,,,0.00,Wunderground v.1.15,2013-08-26 04:15:00,
2013-08-26 00:29:00,68.1,62.7,30.24,NNE,15,3.0,3.0,83,0.00,,,0.00,Wunderground v.1.15,2013-08-26 04:29:00,
2013-08-26 00:39:00,67.9,62.9,30.24,NNE,25,3.0,4.0,84,0.00,,,0.00,Wunderground v.1.15,2013-08-26 04:39:00,
2013-08-26 00:49:00,67.7,62.7,30.23,NE,55,2.0,2.0,84,0.00,,,0.00,Wunderground v.1.15,2013-08-26 04:49:00,
2013-08-26 00:59:00,67.5,62.8,30.23,NE,55,2.0,3.0,85,0.00,,,0.00,Wunderground v.1.15,2013-08-26 04:59:00,
2013-08-26 01:04:00,67.4,62.7,30.23,NE,47,2.0,3.0,85,0.00,,,0.00,Wunderground v.1.15,2013-08-26 05:04:00,
2013-08-26 01:10:00,67.3,62.6,30.23,NE,55,2.0,3.0,85,0.00,,,0.00,Wunderground v.1.15,2013-08-26 05:10:00,
2013-08-26 01:24:00,67.0,62.7,30.23,NE,42,3.0,3.0,86,0.00,,,0.00,Wunderground v.1.15,2013-08-26 05:24:00,
2013-08-26 01:34:00,67.0,63.0,30.24,ENE,57,2.0,2.0,87,0.00,,,0.00,Wunderground v.1.15,2013-08-26 05:34:00,
2013-08-26 01:44:00,66.8,62.8,30.24,NE,40,2.0,3.0,87,0.00,,,0.00,Wunderground v.1.15,2013-08-26 05:44:00,
2013-08-26 01:54:00,66.5,62.5,30.23,NE,52,2.0,3.0,87,0.00,,,0.00,Wunderground v.1.15,2013-08-26 05:54:00,
2013-08-26 02:05:00,66.3,62.6,30.23,NE,51,2.0,2.0,88,0.00,,,0.00,Wunderground v.1.15,2013-08-26 06:05:00,
2013-08-26 02:15:00,66.2,62.5,30.23,NE,55,2.0,2.0,88,0.00,,,0.00,Wunderground v.1.15,2013-08-26 06:15:00,
2013-08-26 02:29:00,66.0,62.7,30.23,NE,56,1.0,1.0,89,0.00,,,0.00,Wunderground v.1.15,2013-08-26 06:29:00,
2013-08-26 02:39:00,65.9,62.6,30.23,ENE,60,1.0,1.0,89,0.00,,,0.00,Wunderground v.1.15,2013-08-26 06:39:00,
2013-08-26 02:49:00,65.9,62.6,30.22,NE,55,1.0,3.0,89,0.00,,,0.00,Wunderground v.1.15,2013-08-26 06:49:00,
2013-08-26 02:59:00,66.0,62.7,30.22,NE,48,1.0,2.0,89,0.00,,,0.00,Wunderground v.1.15,2013-08-26 06:59:00,
2013-08-26 03:10:00,65.9,62.6,30.22,NE,50,1.0,1.0,89,0.00,,,0.00,Wunderground v.1.15,2013-08-26 07:10:00,
2013-08-26 03:24:00,65.9,62.6,30.22,NE,45,1.0,2.0,89,0.00,,,0.00,Wunderground v.1.15,2013-08-26 07:24:00,
2013-08-26 03:34:00,65.9,62.6,30.22,NE,34,2.0,2.0,89,0.00,,,0.00,Wunderground v.1.15,2013-08-26 07:34:00,
2013-08-26 03:44:00,65.8,62.5,30.23,NE,40,2.0,3.0,89,0.00,,,0.00,Wunderground v.1.15,2013-08-26 07:44:00,
2013-08-26 03:54:00,65.7,62.7,30.22,NE,42,2.0,2.0,90,0.00,,,0.00,Wunderground v.1.15,2013-08-26 07:54:00,
2013-08-26 04:05:00,65.6,62.6,30.22,NE,42,0.0,1.0,90,0.00,,,0.00,Wunderground v.1.15,2013-08-26 08:05:00,
2013-08-26 04:15:00,65.5,62.5,30.22,NE,35,2.0,2.0,90,0.00,,,0.00,Wunderground v.1.15,2013-08-26 08:15:00,
2013-08-26 04:29:00,65.3,62.3,30.22,NE,36,1.0,1.0,90,0.00,,,0.00,Wunderground v.1.15,2013-08-26 08:29:00,
2013-08-26 04:39:00,65.3,62.3,30.22,NE,36,0.0,0.0,90,0.00,,,0.00,Wunderground v.1.15,2013-08-26 08:39:00,
2013-08-26 04:49:00,65.1,62.1,30.22,NE,36,1.0,1.0,90,0.00,,,0.00,Wunderground v.1.15,2013-08-26 08:49:00,
2013-08-26 04:59:00,65.0,62.3,30.21,NE,36,0.0,0.0,91,0.00,,,0.00,Wunderground v.1.15,2013-08-26 08:59:00,
2013-08-26 05:14:00,64.8,62.1,30.21,NE,36,0.0,1.0,91,0.00,,,0.00,Wunderground v.1.15,2013-08-26 09:14:00,
2013-08-26 05:24:00,64.6,61.9,30.21,NE,36,0.0,0.0,91,0.00,,,0.00,Wunderground v.1.15,2013-08-26 09:24:00,
2013-08-26 05:35:00,64.5,62.1,30.20,NE,36,1.0,1.0,92,0.00,,,0.00,Wunderground v.1.15,2013-08-26 09:35:00,
2013-08-26 05:45:00,64.4,62.0,30.20,NE,42,0.0,0.0,92,0.00,,,0.00,Wunderground v.1.15,2013-08-26 09:45:00,
2013-08-26 05:59:00,64.1,61.7,30.20,NE,42,1.0,1.0,92,0.00,,,0.00,Wunderground v.1.15,2013-08-26 09:59:00,
2013-08-26 06:09:00,63.9,61.5,30.20,NE,49,1.0,1.0,92,0.00,,,0.00,Wunderground v.1.15,2013-08-26 10:09:00,
2013-08-26 06:19:00,63.8,61.4,30.20,NE,49,1.0,1.0,92,0.00,,,0.00,Wunderground v.1.15,2013-08-26 10:19:00,
2013-08-26 06:30:00,63.7,61.3,30.20,NE,49,1.0,1.0,92,0.00,,,0.00,Wunderground v.1.15,2013-08-26 10:30:00,
2013-08-26 06:40:00,63.8,61.4,30.20,NE,49,0.0,0.0,92,0.00,,,0.00,Wunderground v.1.15,2013-08-26 10:40:00,
2013-08-26 06:54:00,63.7,61.3,30.21,NE,48,1.0,1.0,92,0.00,,,0.00,Wunderground v.1.15,2013-08-26 10:54:00,
2013-08-26 07:04:00,63.7,61.3,30.21,NE,36,0.0,0.0,92,0.00,,,0.00,Wunderground v.1.15,2013-08-26 11:04:00,
2013-08-26 07:14:00,63.7,61.3,30.21,NE,37,0.0,0.0,92,0.00,,,0.00,Wunderground v.1.15,2013-08-26 11:14:00,
2013-08-26 07:25:00,63.9,61.5,30.21,NE,52,1.0,2.0,92,0.00,,,0.00,Wunderground v.1.15,2013-08-26 11:25:00,
2013-08-26 07:35:00,64.2,61.8,30.21,NE,44,2.0,2.0,92,0.00,,,0.00,Wunderground v.1.15,2013-08-26 11:35:00,
2013-08-26 07:49:00,64.9,62.2,30.21,NNE,31,3.0,4.0,91,0.00,,,0.00,Wunderground v.1.15,2013-08-26 11:49:00,
2013-08-26 07:59:00,65.4,62.4,30.21,NE,40,2.0,3.0,90,0.00,,,0.00,Wunderground v.1.15,2013-08-26 11:59:00,
2013-08-26 08:09:00,65.9,62.6,30.21,NE,53,4.0,4.0,89,0.00,,,0.00,Wunderground v.1.15,2013-08-26 12:09:00,
2013-08-26 08:19:00,66.6,62.9,30.21,NE,34,3.0,3.0,88,0.00,,,0.00,Wunderground v.1.15,2013-08-26 12:19:00,
2013-08-26 08:30:00,67.0,62.7,30.21,NE,34,5.0,5.0,86,0.00,,,0.00,Wunderground v.1.15,2013-08-26 12:30:00,
2013-08-26 08:44:00,68.2,63.2,30.21,ENE,63,4.0,7.0,84,0.00,,,0.00,Wunderground v.1.15,2013-08-26 12:44:00,
2013-08-26 08:54:00,69.0,63.6,30.21,NE,52,4.0,4.0,83,0.00,,,0.00,Wunderground v.1.15,2013-08-26 12:54:00,
2013-08-26 09:04:00,69.9,63.4,30.22,NNE,24,4.0,5.0,80,0.00,,,0.00,Wunderground v.1.15,2013-08-26 13:04:00,
2013-08-26 09:15:00,70.4,63.2,30.22,NE,44,5.0,5.0,78,0.00,,,0.00,Wunderground v.1.15,2013-08-26 13:15:00,
2013-08-26 09:29:00,71.9,63.5,30.23,NE,49,3.0,3.0,75,0.00,,,0.00,Wunderground v.1.15,2013-08-26 13:29:00,
2013-08-26 09:39:00,72.5,63.0,30.22,NE,48,4.0,4.0,72,0.00,,,0.00,Wunderground v.1.15,2013-08-26 13:39:00,
2013-08-26 09:49:00,72.9,62.5,30.23,ENE,57,4.0,4.0,70,0.00,,,0.00,Wunderground v.1.15,2013-08-26 13:49:00,
2013-08-26 09:59:00,74.1,63.3,30.23,NNE,17,3.0,3.0,69,0.00,,,0.00,Wunderground v.1.15,2013-08-26 13:59:00,
2013-08-26 10:14:00,74.4,61.4,30.23,North,5,4.0,7.0,64,0.00,,,0.00,Wunderground v.1.15,2013-08-26 14:14:00,
2013-08-26 10:24:00,74.7,61.7,30.24,ENE,75,5.0,5.0,64,0.00,,,0.00,Wunderground v.1.15,2013-08-26 14:24:00,
2013-08-26 10:34:00,74.8,62.7,30.24,ENE,78,4.0,7.0,66,0.00,,,0.00,Wunderground v.1.15,2013-08-26 14:34:00,
2013-08-26 10:45:00,75.4,61.5,30.24,NE,37,5.0,5.0,62,0.00,,,0.00,Wunderground v.1.15,2013-08-26 14:45:00,
2013-08-26 10:59:00,75.9,61.0,30.23,NE,46,4.0,6.0,60,0.00,,,0.00,Wunderground v.1.15,2013-08-26 14:59:00,
2013-08-26 11:09:00,76.0,61.1,30.23,NNE,23,5.0,5.0,60,0.00,,,0.00,Wunderground v.1.15,2013-08-26 15:09:00,
2013-08-26 11:19:00,76.3,61.4,30.23,NE,45,5.0,7.0,60,0.00,,,0.00,Wunderground v.1.15,2013-08-26 15:19:00,
2013-08-26 11:29:00,77.1,62.1,30.23,ENE,59,5.0,7.0,60,0.00,,,0.00,Wunderground v.1.15,2013-08-26 15:29:00,
2013-08-26 11:40:00,77.0,62.0,30.22,East,82,5.0,7.0,60,0.00,,,0.00,Wunderground v.1.15,2013-08-26 15:40:00,
2013-08-26 11:54:00,78.0,63.9,30.22,North,355,4.0,4.0,62,0.00,,,0.00,Wunderground v.1.15,2013-08-26 15:54:00,
2013-08-26 12:04:00,78.0,62.0,30.22,NNE,28,6.0,6.0,58,0.00,,,0.00,Wunderground v.1.15,2013-08-26 16:04:00,
2013-08-26 12:14:00,79.1,63.5,30.22,ENE,72,5.0,5.0,59,0.00,,,0.00,Wunderground v.1.15,2013-08-26 16:14:00,
2013-08-26 12:24:00,79.3,63.7,30.22,NNE,32,5.0,5.0,59,0.00,,,0.00,Wunderground v.1.15,2013-08-26 16:24:00,
2013-08-26 12:35:00,78.8,62.8,30.21,NNE,21,4.0,6.0,58,0.00,,,0.00,Wunderground v.1.15,2013-08-26 16:35:00,
2013-08-26 12:49:00,79.5,64.4,30.21,ENE,64,3.0,3.0,60,0.00,,,0.00,Wunderground v.1.15,2013-08-26 16:49:00,
2013-08-26 12:59:00,79.3,63.2,30.20,North,5,4.0,4.0,58,0.00,,,0.00,Wunderground v.1.15,2013-08-26 16:59:00,
2013-08-26 13:09:00,79.7,63.6,30.20,NE,37,4.0,7.0,58,0.00,,,0.00,Wunderground v.1.15,2013-08-26 17:09:00,
2013-08-26 13:19:00,79.3,63.2,30.19,SE,146,3.0,3.0,58,0.00,,,0.00,Wunderground v.1.15,2013-08-26 17:19:00,
2013-08-26 13:29:00,79.9,63.8,30.19,NE,48,3.0,3.0,58,0.00,,,0.00,Wunderground v.1.15,2013-08-26 17:29:00,
2013-08-26 13:40:00,79.8,63.7,30.19,NE,46,2.0,6.0,58,0.00,,,0.00,Wunderground v.1.15,2013-08-26 17:40:00,
2013-08-26 13:54:00,79.7,64.1,30.19,ENE,61,3.0,3.0,59,0.00,,,0.00,Wunderground v.1.15,2013-08-26 17:54:00,
2013-08-26 14:04:00,80.3,64.2,30.18,ESE,109,2.0,2.0,58,0.00,,,0.00,Wunderground v.1.15,2013-08-26 18:04:00,
2013-08-26 14:14:00,80.6,64.9,30.18,East,95,2.0,2.0,59,0.00,,,0.00,Wunderground v.1.15,2013-08-26 18:14:00,
2013-08-26 14:24:00,80.8,63.6,30.17,SSW,202,2.0,2.0,56,0.00,,,0.00,Wunderground v.1.15,2013-08-26 18:24:00,
2013-08-26 14:35:00,81.0,64.8,30.17,SE,128,2.0,3.0,58,0.00,,,0.00,Wunderground v.1.15,2013-08-26 18:35:00,
2013-08-26 14:45:00,80.0,65.3,30.16,NNE,25,2.0,5.0,61,0.00,,,0.00,Wunderground v.1.15,2013-08-26 18:45:00,
2013-08-26 14:59:00,81.3,65.1,30.16,NE,36,2.0,3.0,58,0.00,,,0.00,Wunderground v.1.15,2013-08-26 18:59:00,
2013-08-26 15:10:00,81.1,64.4,30.15,ENE,60,2.0,3.0,57,0.00,,,0.00,Wunderground v.1.15,2013-08-26 19:10:00,
2013-08-26 15:24:00,81.8,63.0,30.14,WNW,288,2.0,2.0,53,0.00,,,0.00,Wunderground v.1.15,2013-08-26 19:24:00,
2013-08-26 15:34:00,82.1,63.3,30.14,WNW,287,2.0,2.0,53,0.00,,,0.00,Wunderground v.1.15,2013-08-26 19:34:00,
2013-08-26 15:44:00,82.0,63.7,30.13,NNE,30,1.0,1.0,54,0.00,,,0.00,Wunderground v.1.15,2013-08-26 19:44:00,
2013-08-26 15:54:00,82.1,63.8,30.13,West,275,1.0,5.0,54,0.00,,,0.00,Wunderground v.1.15,2013-08-26 19:54:00,
2013-08-26 16:04:00,81.9,63.1,30.12,West,263,2.0,2.0,53,0.00,,,0.00,Wunderground v.1.15,2013-08-26 20:04:00,
2013-08-26 16:15:00,81.6,63.9,30.12,ESE,119,2.0,2.0,55,0.00,,,0.00,Wunderground v.1.15,2013-08-26 20:15:00,
2013-08-26 16:25:00,81.2,64.5,30.11,ESE,115,3.0,3.0,57,0.00,,,0.00,Wunderground v.1.15,2013-08-26 20:25:00,
2013-08-26 16:39:00,81.6,64.4,30.11,ESE,113,2.0,2.0,56,0.00,,,0.00,Wunderground v.1.15,2013-08-26 20:39:00,
2013-08-26 16:49:00,81.8,63.5,30.11,ESE,113,1.0,1.0,54,0.00,,,0.00,Wunderground v.1.15,2013-08-26 20:49:00,
2013-08-26 16:59:00,80.8,64.1,30.11,ESE,103,2.0,2.0,57,0.00,,,0.00,Wunderground v.1.15,2013-08-26 20:59:00,
2013-08-26 17:09:00,81.5,64.3,30.10,East,80,3.0,3.0,56,0.00,,,0.00,Wunderground v.1.15,2013-08-26 21:09:00,
2013-08-26 17:20:00,80.9,65.2,30.10,NE,36,2.0,2.0,59,0.00,,,0.00,Wunderground v.1.15,2013-08-26 21:20:00,
2013-08-26 17:34:00,81.8,65.6,30.10,ESE,105,2.0,2.0,58,0.00,,,0.00,Wunderground v.1.15,2013-08-26 21:34:00,
2013-08-26 17:44:00,81.6,65.4,30.10,SE,141,3.0,5.0,58,0.00,,,0.00,Wunderground v.1.15,2013-08-26 21:44:00,
2013-08-26 17:54:00,81.3,66.1,30.09,ESE,122,4.0,4.0,60,0.00,,,0.00,Wunderground v.1.15,2013-08-26 21:54:00,
2013-08-26 18:04:00,80.9,65.2,30.10,SE,136,3.0,4.0,59,0.00,,,0.00,Wunderground v.1.15,2013-08-26 22:04:00,
2013-08-26 18:14:00,80.3,64.7,30.10,SE,138,3.0,4.0,59,0.00,,,0.00,Wunderground v.1.15,2013-08-26 22:14:00,
2013-08-26 18:25:00,80.1,65.4,30.10,South,180,1.0,1.0,61,0.00,,,0.00,Wunderground v.1.15,2013-08-26 22:25:00,
2013-08-26 18:39:00,79.9,65.2,30.09,South,179,2.0,2.0,61,0.00,,,0.00,Wunderground v.1.15,2013-08-26 22:39:00,
2013-08-26 18:49:00,79.7,65.5,30.09,South,179,1.0,1.0,62,0.00,,,0.00,Wunderground v.1.15,2013-08-26 22:49:00,
2013-08-26 18:59:00,79.4,66.2,30.09,SSW,198,2.0,4.0,64,0.00,,,0.00,Wunderground v.1.15,2013-08-26 22:59:00,
2013-08-26 19:10:00,79.3,66.1,30.09,South,183,2.0,3.0,64,0.00,,,0.00,Wunderground v.1.15,2013-08-26 23:10:00,
2013-08-26 19:24:00,78.7,65.9,30.09,South,182,3.0,3.0,65,0.00,,,0.00,Wunderground v.1.15,2013-08-26 23:24:00,
2013-08-26 19:34:00,78.3,66.0,30.09,SSE,165,2.0,3.0,66,0.00,,,0.00,Wunderground v.1.15,2013-08-26 23:34:00,
2013-08-26 19:44:00,77.8,66.0,30.10,SSW,198,1.0,1.0,67,0.00,,,0.00,Wunderground v.1.15,2013-08-26 23:44:00,
2013-08-26 19:54:00,77.6,66.2,30.10,SSW,194,2.0,2.0,68,0.00,,,0.00,Wunderground v.1.15,2013-08-26 23:54:00,
2013-08-26 20:04:00,77.3,65.9,30.10,SSW,203,1.0,2.0,68,0.00,,,0.00,Wunderground v.1.15,2013-08-27 00:04:00,
2013-08-26 20:15:00,77.0,66.0,30.10,South,189,2.0,2.0,69,0.00,,,0.00,Wunderground v.1.15,2013-08-27 00:15:00,
2013-08-26 20:29:00,76.6,66.1,30.10,SW,215,3.0,4.0,70,0.00,,,0.00,Wunderground v.1.15,2013-08-27 00:29:00,
2013-08-26 20:39:00,76.1,66.0,30.10,SW,215,2.0,2.0,71,0.00,,,0.00,Wunderground v.1.15,2013-08-27 00:39:00,
2013-08-26 20:49:00,75.7,66.0,30.10,SW,215,1.0,2.0,72,0.00,,,0.00,Wunderground v.1.15,2013-08-27 00:49:00,
2013-08-26 20:59:00,75.7,66.0,30.10,SW,218,2.0,3.0,72,0.00,,,0.00,Wunderground v.1.15,2013-08-27 00:59:00,
2013-08-26 21:10:00,75.4,66.1,30.10,SSW,211,3.0,3.0,73,0.00,,,0.00,Wunderground v.1.15,2013-08-27 01:10:00,
2013-08-26 21:20:00,75.3,66.0,30.10,SW,231,3.0,3.0,73,0.00,,,0.00,Wunderground v.1.15,2013-08-27 01:20:00,
2013-08-26 21:34:00,74.8,66.0,30.11,SW,231,1.0,1.0,74,0.00,,,0.00,Wunderground v.1.15,2013-08-27 01:34:00,
2013-08-26 21:44:00,74.5,66.1,30.11,SW,231,1.0,1.0,75,0.00,,,0.00,Wunderground v.1.15,2013-08-27 01:44:00,
2013-08-26 21:54:00,74.2,66.1,30.11,SW,231,0.0,0.0,76,0.00,,,0.00,Wunderground v.1.15,2013-08-27 01:54:00,
2013-08-26 22:04:00,73.8,66.1,30.11,SW,231,0.0,0.0,77,0.00,,,0.00,Wunderground v.1.15,2013-08-27 02:04:00,
2013-08-26 22:15:00,73.5,65.8,30.11,SW,231,0.0,0.0,77,0.00,,,0.00,Wunderground v.1.15,2013-08-27 02:15:00,
2013-08-26 22:25:00,73.2,65.9,30.11,SW,231,0.0,0.0,78,0.00,,,0.00,Wunderground v.1.15,2013-08-27 02:25:00,
2013-08-26 22:39:00,72.8,66.3,30.10,SW,231,0.0,0.0,80,0.00,,,0.00,Wunderground v.1.15,2013-08-27 02:39:00,
2013-08-26 22:49:00,72.6,66.4,30.10,SW,231,0.0,0.0,81,0.00,,,0.00,Wunderground v.1.15,2013-08-27 02:49:00,
2013-08-26 22:59:00,72.2,66.4,30.11,SW,231,0.0,0.0,82,0.00,,,0.00,Wunderground v.1.15,2013-08-27 02:59:00,
2013-08-26 23:09:00,71.7,66.3,30.11,SW,231,0.0,0.0,83,0.00,,,0.00,Wunderground v.1.15,2013-08-27 03:09:00,
2013-08-26 23:20:00,71.0,66.3,30.11,SW,231,0.0,0.0,85,0.00,,,0.00,Wunderground v.1.15,2013-08-27 03:20:00,
2013-08-26 23:30:00,70.7,66.0,30.11,SW,231,0.0,0.0,85,0.00,,,0.00,Wunderground v.1.15,2013-08-27 03:30:00,
2013-08-26 23:44:00,70.2,66.1,30.11,SW,231,0.0,0.0,87,0.00,,,0.00,Wunderground v.1.15,2013-08-27 03:44:00,
2013-08-26 23:54:00,70.4,66.3,30.11,SW,231,0.0,0.0,87,0.00,,,0.00,Wunderground v.1.15,2013-08-27 03:54:00,